Terminal Aerodrome Forecast
Issued by NWS Wilmington, NC

Home | Current Version | Previous Version | Text Only | Print | Product List | Glossary On
Versions: 1 2 3 4 5 6 7 8 9 10 11 12 13 14 15 16 17 18
000
FTUS42 KILM 160200 AAA
TAFMYR
TAF AMD
KMYR 160251Z 1603/1624 35015G25KT P6SM SCT015 OVC045
      TEMPO 1603/1605 34012KT BKN015
     FM160600 35014G25KT P6SM SCT020 SCT060
     FM161300 03018G26KT P6SM SKC
      AMD LTD TO CLD VIS AND WIND 1604/1611=

USA.gov is the U.S. government's official web portal to all federal, state and local government web resources and services.